createdAt,value
2023-05-01T00:01:00.365Z,9.00
2023-05-01T00:03:30.040Z,9.00
2023-05-01T00:06:04.926Z,9.00
2023-05-01T00:08:33.529Z,9.00
2023-05-01T00:11:04.227Z,8.90
2023-05-01T00:13:34.561Z,8.90
2023-05-01T00:16:05.516Z,8.90
2023-05-01T00:18:35.582Z,8.90
2023-05-01T00:21:04.033Z,8.90
2023-05-01T00:23:32.367Z,8.90
2023-05-01T00:26:00.606Z,8.90
2023-05-01T00:28:28.668Z,8.80
2023-05-01T00:31:01.533Z,8.80
2023-05-01T00:33:29.717Z,8.80
2023-05-01T00:36:00.552Z,8.70
2023-05-01T00:38:28.668Z,8.70
2023-05-01T00:41:01.553Z,8.70
2023-05-01T00:43:29.732Z,8.60
2023-05-01T00:45:57.932Z,8.50
2023-05-01T00:48:27.558Z,8.50
2023-05-01T00:50:56.850Z,8.50
2023-05-01T00:53:29.565Z,8.50
2023-05-01T00:55:59.430Z,8.50
2023-05-01T00:58:27.879Z,8.50
2023-05-01T01:00:56.330Z,8.40
2023-05-01T01:03:25.589Z,8.30
2023-05-01T01:05:58.313Z,8.30
2023-05-01T01:08:35.566Z,8.30
2023-05-01T01:11:15.862Z,8.30
2023-05-01T01:13:53.830Z,8.20
2023-05-01T01:16:57.610Z,8.20
2023-05-01T01:20:15.159Z,8.20
2023-05-01T01:22:49.587Z,8.20
2023-05-01T01:25:45.587Z,8.20
2023-05-01T01:28:37.567Z,8.20
2023-05-01T01:31:18.775Z,8.20
2023-05-01T01:34:10.208Z,8.10
2023-05-01T01:36:48.586Z,8.00
2023-05-01T01:39:28.259Z,8.10
2023-05-01T01:42:00.597Z,7.90
2023-05-01T01:44:34.913Z,7.80
2023-05-01T01:47:08.606Z,7.70
2023-05-01T01:49:42.602Z,7.70
2023-05-01T01:52:15.395Z,7.60
2023-05-01T01:54:52.598Z,7.60
2023-05-01T01:57:22.693Z,7.60
2023-05-01T01:59:53.736Z,7.60
2023-05-01T02:02:23.436Z,7.50
2023-05-01T02:04:59.515Z,7.50
2023-05-01T02:07:30.691Z,7.40
2023-05-01T02:10:03.951Z,7.40
2023-05-01T02:12:38.699Z,7.40
2023-05-01T02:15:11.636Z,7.30
2023-05-01T02:17:45.563Z,7.30
2023-05-01T02:20:15.784Z,7.30
2023-05-01T02:22:47.618Z,7.20
2023-05-01T02:25:16.851Z,7.20
2023-05-01T02:27:49.639Z,7.10
2023-05-01T02:30:19.142Z,7.20
2023-05-01T02:32:47.583Z,7.10
2023-05-01T02:35:21.563Z,7.10
2023-05-01T02:37:50.603Z,7.10
2023-05-01T02:40:19.407Z,7.00
2023-05-01T02:42:50.861Z,7.10
2023-05-01T02:45:21.735Z,7.10
2023-05-01T02:47:57.814Z,7.10
2023-05-01T02:50:28.241Z,7.00
2023-05-01T02:52:57.369Z,7.00
2023-05-01T02:55:37.586Z,7.00
2023-05-01T02:58:05.801Z,6.90
2023-05-01T03:00:35.646Z,6.80
2023-05-01T03:03:03.861Z,6.60
2023-05-01T03:05:33.354Z,6.50
2023-05-01T03:08:01.599Z,6.70
2023-05-01T03:10:29.763Z,6.70
2023-05-01T03:13:00.627Z,6.70
2023-05-01T03:15:29.409Z,6.70
2023-05-01T03:17:57.630Z,6.70
2023-05-01T03:20:27.574Z,6.70
2023-05-01T03:22:58.218Z,6.70
2023-05-01T03:25:28.640Z,6.70
2023-05-01T03:27:57.635Z,6.70
2023-05-01T03:30:28.810Z,6.70
2023-05-01T03:32:58.674Z,6.60
2023-05-01T03:35:32.463Z,6.60
2023-05-01T03:38:02.208Z,6.60
2023-05-01T03:40:49.642Z,6.60
2023-05-01T03:43:36.255Z,6.60
2023-05-01T03:46:10.651Z,6.60
2023-05-01T03:48:39.029Z,6.60
2023-05-01T03:51:07.406Z,6.60
2023-05-01T03:53:39.665Z,6.60
2023-05-01T03:56:09.946Z,6.70
2023-05-01T03:58:39.618Z,6.60
2023-05-01T04:01:09.409Z,6.70
2023-05-01T04:03:43.066Z,6.70
2023-05-01T04:06:12.650Z,6.80
2023-05-01T04:08:42.651Z,6.80
2023-05-01T04:11:10.999Z,6.90
2023-05-01T04:13:39.097Z,6.90
2023-05-01T04:16:08.720Z,7.00
2023-05-01T04:18:37.647Z,7.00
2023-05-01T04:21:09.817Z,7.10
2023-05-01T04:23:42.641Z,7.10
2023-05-01T04:26:10.822Z,7.10
2023-05-01T04:28:43.660Z,7.10
2023-05-01T04:31:14.234Z,7.20
2023-05-01T04:33:42.698Z,7.30
2023-05-01T04:36:10.766Z,7.40
2023-05-01T04:38:38.976Z,7.40
2023-05-01T04:41:09.667Z,7.50
2023-05-01T04:43:38.680Z,7.50
2023-05-01T04:46:09.279Z,7.60
2023-05-01T04:48:38.004Z,7.60
2023-05-01T04:51:07.655Z,7.70
2023-05-01T04:53:37.660Z,7.70
2023-05-01T04:56:09.965Z,7.80
2023-05-01T04:58:39.672Z,7.80
2023-05-01T05:01:12.720Z,7.90
2023-05-01T05:03:45.985Z,7.90
2023-05-01T05:06:16.495Z,8.00
2023-05-01T05:08:48.009Z,8.10
2023-05-01T05:11:17.810Z,8.20
2023-05-01T05:14:01.711Z,8.30
2023-05-01T05:16:30.373Z,8.30
2023-05-01T05:18:58.836Z,8.30
2023-05-01T05:21:35.926Z,8.40
2023-05-01T05:24:05.202Z,8.50
2023-05-01T05:26:35.396Z,8.50
2023-05-01T05:29:05.199Z,8.60
2023-05-01T05:31:34.927Z,8.60
2023-05-01T05:34:03.795Z,8.70
2023-05-01T05:36:32.375Z,8.80
2023-05-01T05:39:01.698Z,8.80
2023-05-01T05:41:29.849Z,8.90
2023-05-01T05:44:03.685Z,8.90
2023-05-01T05:46:32.916Z,9.00
2023-05-01T05:49:01.692Z,9.00
2023-05-01T05:51:32.041Z,9.10
2023-05-01T05:54:01.521Z,9.10
2023-05-01T05:56:34.353Z,9.10
2023-05-01T05:59:04.714Z,9.20
2023-05-01T06:01:33.871Z,9.20
2023-05-01T06:04:02.299Z,9.30
2023-05-01T06:06:33.479Z,9.30
2023-05-01T06:09:02.034Z,9.40
2023-05-01T06:11:31.011Z,9.50
2023-05-01T06:14:00.324Z,9.50
2023-05-01T06:16:34.275Z,9.60
2023-05-01T06:19:03.164Z,9.60
2023-05-01T06:21:32.860Z,9.70
2023-05-01T06:24:02.540Z,9.70
2023-05-01T06:26:38.867Z,9.70
2023-05-01T06:29:07.044Z,9.70
2023-05-01T06:31:37.172Z,9.80
2023-05-01T06:34:09.274Z,9.80
2023-05-01T06:36:49.593Z,10.00
2023-05-01T06:39:17.890Z,10.10
2023-05-01T06:41:47.673Z,10.10
2023-05-01T06:44:17.049Z,10.10
2023-05-01T06:46:46.911Z,10.10
2023-05-01T06:49:15.064Z,10.10
2023-05-01T06:51:46.674Z,10.20
2023-05-01T06:54:15.139Z,10.20
2023-05-01T06:56:43.236Z,10.20
2023-05-01T06:59:11.590Z,10.30
2023-05-01T07:01:39.801Z,10.30
2023-05-01T07:04:09.333Z,10.40
2023-05-01T07:06:37.689Z,10.40
2023-05-01T07:09:08.450Z,10.40
2023-05-01T07:11:37.706Z,10.60
2023-05-01T07:14:05.794Z,10.60
2023-05-01T07:16:34.228Z,10.60
2023-05-01T07:19:02.385Z,10.70
2023-05-01T07:21:36.874Z,10.80
2023-05-01T07:24:05.928Z,10.80
2023-05-01T07:26:34.087Z,10.90
2023-05-01T07:29:02.187Z,10.90
2023-05-01T07:31:30.396Z,11.00
2023-05-01T07:33:58.484Z,11.10
2023-05-01T07:36:34.771Z,11.10
2023-05-01T07:39:02.964Z,11.10
2023-05-01T07:41:32.725Z,11.20
2023-05-01T07:44:00.970Z,11.10
2023-05-01T07:46:35.294Z,11.10
2023-05-01T07:49:04.312Z,11.20
2023-05-01T07:51:33.911Z,11.20
2023-05-01T07:54:04.594Z,11.30
2023-05-01T07:56:33.320Z,11.40
2023-05-01T07:59:01.938Z,11.50
2023-05-01T08:01:30.203Z,11.50
2023-05-01T08:03:58.449Z,11.20
2023-05-01T08:06:27.991Z,11.20
2023-05-01T08:08:57.449Z,11.30
2023-05-01T08:11:29.965Z,11.50
2023-05-01T08:13:58.165Z,11.50
2023-05-01T08:16:26.837Z,11.60
2023-05-01T08:18:55.090Z,11.70
2023-05-01T08:21:23.179Z,11.70
2023-05-01T08:23:52.012Z,11.90
2023-05-01T08:26:22.668Z,11.90
2023-05-01T08:28:51.088Z,11.90
2023-05-01T08:31:21.290Z,11.90
2023-05-01T08:33:49.430Z,11.90
2023-05-01T08:36:20.686Z,11.90
2023-05-01T08:38:51.245Z,12.00
2023-05-01T08:41:23.011Z,12.20
2023-05-01T08:43:51.666Z,12.30
2023-05-01T08:46:26.977Z,12.30
2023-05-01T08:48:59.090Z,12.30
2023-05-01T08:51:27.660Z,12.30
2023-05-01T08:53:58.423Z,12.40
2023-05-01T08:56:31.769Z,12.30
2023-05-01T08:59:01.969Z,12.20
2023-05-01T09:01:32.924Z,12.30
2023-05-01T09:04:04.119Z,12.30
2023-05-01T09:06:33.185Z,12.50
2023-05-01T09:09:01.574Z,12.60
2023-05-01T09:11:31.645Z,12.70
2023-05-01T09:14:01.693Z,12.70
2023-05-01T09:16:30.983Z,12.80
2023-05-01T09:18:59.950Z,13.00
2023-05-01T09:21:31.864Z,13.00
2023-05-01T09:24:07.801Z,12.90
2023-05-01T09:26:41.920Z,13.00
2023-05-01T09:29:13.326Z,13.20
2023-05-01T09:31:41.459Z,13.20
2023-05-01T09:34:09.613Z,13.20
2023-05-01T09:36:38.228Z,13.30
2023-05-01T09:39:06.358Z,13.20
2023-05-01T09:41:34.487Z,13.10
2023-05-01T09:44:05.797Z,13.00
2023-05-01T09:46:43.767Z,12.90
2023-05-01T09:49:12.001Z,12.90
2023-05-01T09:51:40.066Z,13.10
2023-05-01T09:54:19.791Z,13.20
2023-05-01T09:56:49.809Z,13.50
2023-05-01T09:59:20.606Z,13.50
2023-05-01T10:01:50.962Z,13.60
2023-05-01T10:04:30.337Z,13.60
2023-05-01T10:06:59.852Z,13.50
2023-05-01T10:09:33.853Z,13.60
2023-05-01T10:12:02.028Z,13.40
2023-05-01T10:14:33.941Z,13.50
2023-05-01T10:17:02.636Z,13.40
2023-05-01T10:19:32.843Z,13.50
2023-05-01T10:22:03.414Z,13.50
2023-05-01T10:24:32.576Z,13.50
2023-05-01T10:27:01.494Z,13.80
2023-05-01T10:29:32.918Z,14.00
2023-05-01T10:32:03.682Z,14.00
2023-05-01T10:34:35.611Z,14.30
2023-05-01T10:37:10.800Z,14.30
2023-05-01T10:39:40.240Z,14.40
2023-05-01T10:42:11.466Z,14.40
2023-05-01T10:44:45.183Z,14.40
2023-05-01T10:47:48.635Z,14.40
2023-05-01T10:50:17.469Z,14.50
2023-05-01T10:53:18.303Z,14.70
2023-05-01T10:55:47.762Z,14.90
2023-05-01T10:58:51.632Z,15.10
2023-05-01T11:01:39.863Z,15.30
2023-05-01T11:04:09.524Z,15.40
2023-05-01T11:06:39.123Z,15.50
2023-05-01T11:09:41.540Z,15.70
2023-05-01T11:12:11.098Z,15.90
2023-05-01T11:15:05.952Z,16.00
2023-05-01T11:17:49.891Z,16.10
2023-05-01T11:20:47.832Z,16.20
2023-05-01T11:23:23.604Z,16.50
2023-05-01T11:26:01.978Z,16.70
2023-05-01T11:28:33.839Z,16.80
2023-05-01T11:31:02.587Z,16.90
2023-05-01T11:33:32.581Z,16.90
2023-05-01T11:36:04.933Z,17.10
2023-05-01T11:38:33.100Z,17.30
2023-05-01T11:41:04.178Z,17.40
2023-05-01T11:43:32.968Z,17.50
2023-05-01T11:46:04.455Z,17.50
2023-05-01T11:48:34.055Z,17.60
2023-05-01T11:51:02.194Z,17.40
2023-05-01T11:53:30.733Z,16.80
2023-05-01T11:55:59.571Z,17.00
2023-05-01T11:58:36.379Z,17.20
2023-05-01T12:01:07.351Z,17.40
2023-05-01T12:03:45.981Z,17.60
2023-05-01T12:06:14.988Z,17.70
2023-05-01T12:08:48.378Z,17.60
2023-05-01T12:11:18.258Z,17.60
2023-05-01T12:13:47.887Z,17.80
2023-05-01T12:16:16.024Z,18.10
2023-05-01T12:18:45.872Z,18.40
2023-05-01T12:21:18.880Z,18.60
2023-05-01T12:23:47.291Z,18.90
2023-05-01T12:26:22.029Z,18.90
2023-05-01T12:28:58.504Z,19.10
2023-05-01T12:31:28.083Z,19.20
2023-05-01T12:34:01.948Z,19.30
2023-05-01T12:36:40.530Z,19.40
2023-05-01T12:39:10.111Z,19.70
2023-05-01T12:41:40.201Z,19.80
2023-05-01T12:44:20.088Z,20.10
2023-05-01T12:46:57.363Z,20.40
2023-05-01T12:49:28.041Z,20.30
2023-05-01T12:51:57.469Z,20.30
2023-05-01T12:54:28.573Z,20.60
2023-05-01T12:57:07.964Z,20.70
2023-05-01T12:59:43.493Z,20.90
2023-05-01T13:02:15.033Z,21.10
2023-05-01T13:04:48.052Z,21.20
2023-05-01T13:07:18.729Z,21.50
2023-05-01T13:09:56.544Z,21.60
2023-05-01T13:12:26.298Z,21.60
2023-05-01T13:14:55.223Z,21.80
2023-05-01T13:17:25.648Z,21.50
2023-05-01T13:19:59.789Z,21.70
2023-05-01T13:22:33.594Z,21.60
2023-05-01T13:25:03.866Z,22.30
2023-05-01T13:27:35.652Z,22.80
2023-05-01T13:30:03.881Z,23.30
2023-05-01T13:32:33.316Z,23.30
2023-05-01T13:35:03.576Z,23.60
2023-05-01T13:37:32.500Z,24.50
2023-05-01T13:40:00.914Z,25.50
2023-05-01T13:42:29.476Z,25.80
2023-05-01T13:44:58.778Z,26.50
2023-05-01T13:47:28.262Z,26.80
2023-05-01T13:49:56.816Z,27.20
2023-05-01T13:52:26.443Z,27.40
2023-05-01T13:54:58.205Z,27.50
2023-05-01T13:57:26.735Z,27.80
2023-05-01T13:59:55.399Z,27.80
2023-05-01T14:02:27.835Z,28.00
2023-05-01T14:05:00.119Z,28.70
2023-05-01T14:07:30.295Z,28.70
2023-05-01T14:10:00.445Z,28.30
2023-05-01T14:12:31.014Z,28.30
2023-05-01T14:15:01.442Z,28.40
2023-05-01T14:17:34.677Z,28.60
2023-05-01T14:20:04.948Z,28.90
2023-05-01T14:22:44.346Z,29.20
2023-05-01T14:25:29.955Z,28.70
2023-05-01T14:27:59.384Z,29.10
2023-05-01T14:30:36.111Z,29.90
2023-05-01T14:33:06.020Z,30.40
2023-05-01T14:35:35.145Z,30.30
2023-05-01T14:38:10.974Z,30.70
2023-05-01T14:40:41.796Z,31.00
2023-05-01T14:43:17.986Z,31.30
2023-05-01T14:45:49.146Z,30.60
2023-05-01T14:48:24.066Z,30.20
2023-05-01T14:50:52.362Z,30.50
2023-05-01T14:53:23.203Z,31.10
2023-05-01T14:55:52.716Z,31.40
2023-05-01T14:58:20.912Z,31.60
2023-05-01T15:00:49.910Z,31.90
2023-05-01T15:03:18.883Z,32.40
2023-05-01T15:05:48.514Z,32.50
2023-05-01T15:08:16.735Z,32.60
2023-05-01T15:10:49.575Z,32.20
2023-05-01T15:13:18.021Z,32.40
2023-05-01T15:15:46.129Z,32.80
2023-05-01T15:18:18.530Z,32.50
2023-05-01T15:20:47.004Z,33.00
2023-05-01T15:23:15.172Z,32.60
2023-05-01T15:25:46.083Z,32.10
2023-05-01T15:28:16.126Z,31.60
2023-05-01T15:30:47.176Z,31.60
2023-05-01T15:33:18.793Z,31.40
2023-05-01T15:35:48.800Z,30.70
2023-05-01T15:38:22.097Z,30.30
2023-05-01T15:40:51.238Z,30.60
2023-05-01T15:43:22.036Z,30.20
2023-05-01T15:45:51.288Z,30.40
2023-05-01T15:48:20.308Z,30.70
2023-05-01T15:50:49.319Z,30.80
2023-05-01T15:53:18.005Z,31.00
2023-05-01T15:55:47.077Z,30.90
2023-05-01T15:58:17.045Z,30.60
2023-05-01T16:00:50.194Z,30.10
2023-05-01T16:03:18.743Z,29.70
2023-05-01T16:08:40.289Z,30.10
2023-05-01T16:11:11.143Z,29.20
2023-05-01T16:13:39.930Z,29.20
2023-05-01T16:16:12.339Z,29.70
2023-05-01T16:18:42.572Z,29.40
2023-05-01T16:21:11.369Z,29.00
2023-05-01T16:23:44.051Z,29.40
2023-05-01T16:26:12.184Z,29.00
2023-05-01T16:28:41.070Z,29.20
2023-05-01T16:31:23.576Z,29.60
2023-05-01T16:33:57.054Z,28.30
2023-05-01T16:36:25.155Z,27.30
2023-05-01T16:38:56.549Z,26.70
2023-05-01T16:41:25.039Z,25.50
2023-05-01T16:43:54.088Z,24.80
2023-05-01T16:46:23.548Z,23.90
2023-05-01T16:48:51.793Z,23.60
2023-05-01T16:51:26.473Z,23.10
2023-05-01T16:53:54.602Z,22.70
2023-05-01T16:56:23.317Z,22.10
2023-05-01T16:58:51.379Z,21.90
2023-05-01T17:01:19.634Z,21.40
2023-05-01T17:03:50.262Z,21.10
2023-05-01T17:06:21.513Z,20.70
2023-05-01T17:08:49.611Z,20.60
2023-05-01T17:11:19.013Z,20.20
2023-05-01T17:13:47.217Z,20.00
2023-05-01T17:16:15.271Z,20.00
2023-05-01T17:18:44.690Z,19.90
2023-05-01T17:21:14.186Z,19.60
2023-05-01T17:23:42.271Z,19.40
2023-05-01T17:26:15.906Z,19.30
2023-05-01T17:28:45.313Z,19.20
2023-05-01T17:31:14.819Z,19.10
2023-05-01T17:33:44.201Z,18.90
2023-05-01T17:36:13.686Z,18.60
2023-05-01T17:38:41.834Z,18.50
2023-05-01T17:41:09.886Z,18.50
2023-05-01T17:43:41.781Z,18.40
2023-05-01T17:46:09.898Z,18.30
2023-05-01T17:48:38.021Z,18.20
2023-05-01T17:51:08.916Z,18.20
2023-05-01T17:53:42.409Z,18.20
2023-05-01T17:56:10.620Z,18.10
2023-05-01T17:58:38.970Z,18.00
2023-05-01T18:01:09.373Z,17.90
2023-05-01T18:03:37.723Z,17.90
2023-05-01T18:06:06.116Z,17.80
2023-05-01T18:08:38.575Z,17.70
2023-05-01T18:11:07.019Z,17.60
2023-05-01T18:13:38.299Z,17.60
2023-05-01T18:16:06.810Z,17.60
2023-05-01T18:18:38.388Z,17.50
2023-05-01T18:21:06.577Z,17.50
2023-05-01T18:23:36.761Z,17.30
2023-05-01T18:26:08.807Z,17.30
2023-05-01T18:28:37.148Z,17.20
2023-05-01T18:31:05.310Z,17.10
2023-05-01T18:33:34.186Z,17.00
2023-05-01T18:36:03.189Z,16.90
2023-05-01T18:38:31.278Z,16.90
2023-05-01T18:40:59.327Z,16.80
2023-05-01T18:43:29.029Z,16.70
2023-05-01T18:45:57.893Z,16.70
2023-05-01T18:48:26.193Z,16.60
2023-05-01T18:51:01.253Z,16.60
2023-05-01T18:53:35.771Z,16.40
2023-05-01T18:56:03.979Z,16.40
2023-05-01T18:58:33.391Z,16.40
2023-05-01T19:01:01.581Z,16.40
2023-05-01T19:03:29.726Z,16.30
2023-05-01T19:05:58.011Z,16.30
2023-05-01T19:08:26.144Z,16.30
2023-05-01T19:10:54.234Z,16.20
2023-05-01T19:13:22.344Z,16.20
2023-05-01T19:15:51.792Z,16.20
2023-05-01T19:18:20.100Z,16.10
2023-05-01T19:20:48.272Z,16.10
2023-05-01T19:23:16.429Z,16.00
2023-05-01T19:25:44.534Z,16.00
2023-05-01T19:28:13.546Z,16.00
2023-05-01T19:30:44.846Z,15.90
2023-05-01T19:33:15.210Z,15.90
2023-05-01T19:35:45.475Z,15.80
2023-05-01T19:38:13.576Z,15.70
2023-05-01T19:40:44.892Z,15.60
2023-05-01T19:43:14.301Z,15.60
2023-05-01T19:45:43.075Z,15.60
2023-05-01T19:48:11.610Z,15.60
2023-05-01T19:50:42.740Z,15.50
2023-05-01T19:53:14.426Z,15.40
2023-05-01T19:55:42.593Z,15.40
2023-05-01T19:58:12.955Z,15.40
2023-05-01T20:00:41.085Z,15.30
2023-05-01T20:03:10.887Z,15.30
2023-05-01T20:05:43.236Z,15.20
2023-05-01T20:08:12.791Z,15.10
2023-05-01T20:10:41.080Z,15.10
2023-05-01T20:13:10.946Z,15.10
2023-05-01T20:15:39.608Z,15.10
2023-05-01T20:18:10.384Z,15.10
2023-05-01T20:20:39.981Z,15.00
2023-05-01T20:23:11.264Z,15.00
2023-05-01T20:25:39.585Z,14.90
2023-05-01T20:28:08.918Z,14.80
2023-05-01T20:30:39.404Z,14.80
2023-05-01T20:33:08.088Z,14.80
2023-05-01T20:35:36.347Z,14.70
2023-05-01T20:38:07.215Z,14.70
2023-05-01T20:40:37.294Z,14.70
2023-05-01T20:43:05.641Z,14.70
2023-05-01T20:45:34.259Z,14.60
2023-05-01T20:48:02.932Z,14.60
2023-05-01T20:50:33.446Z,14.60
2023-05-01T20:53:01.556Z,14.60
2023-05-01T20:55:31.042Z,14.60
2023-05-01T20:58:02.247Z,14.50
2023-05-01T21:00:30.337Z,14.40
2023-05-01T21:03:01.620Z,14.40
2023-05-01T21:05:30.231Z,14.30
2023-05-01T21:08:02.311Z,14.30
2023-05-01T21:10:31.844Z,14.30
2023-05-01T21:13:01.227Z,14.20
2023-05-01T21:15:31.204Z,14.20
2023-05-01T21:18:00.150Z,14.20
2023-05-01T21:20:33.225Z,14.10
2023-05-01T21:23:04.580Z,14.20
2023-05-01T21:25:38.279Z,14.10
2023-05-01T21:28:06.997Z,14.10
2023-05-01T21:30:36.616Z,14.00
2023-05-01T21:33:07.155Z,14.00
2023-05-01T21:35:35.645Z,14.00
2023-05-01T21:38:05.396Z,14.00
2023-05-01T21:40:37.896Z,14.00
2023-05-01T21:43:08.254Z,14.00
2023-05-01T21:45:40.441Z,14.00
2023-05-01T21:48:10.285Z,14.00
2023-05-01T21:50:41.545Z,14.00
2023-05-01T21:53:09.905Z,14.00
2023-05-01T21:55:42.457Z,14.00
2023-05-01T21:58:10.810Z,13.90
2023-05-01T22:00:41.580Z,13.90
2023-05-01T22:03:11.327Z,13.90
2023-05-01T22:05:41.081Z,13.90
2023-05-01T22:08:12.725Z,13.90
2023-05-01T22:10:43.040Z,13.90
2023-05-01T22:13:11.578Z,13.80
2023-05-01T22:15:39.702Z,13.80
2023-05-01T22:18:08.422Z,13.80
2023-05-01T22:20:38.601Z,13.80
2023-05-01T22:23:07.547Z,13.70
2023-05-01T22:25:36.251Z,13.60
2023-05-01T22:28:06.110Z,13.50
2023-05-01T22:30:36.262Z,13.50
2023-05-01T22:33:04.585Z,13.50
2023-05-01T22:35:32.752Z,13.50
2023-05-01T22:38:01.307Z,13.40
2023-05-01T22:40:29.414Z,13.40
2023-05-01T22:43:00.650Z,13.30
2023-05-01T22:45:34.399Z,13.30
2023-05-01T22:48:02.487Z,13.20
2023-05-01T22:50:31.276Z,13.20
2023-05-01T22:53:01.351Z,13.20
2023-05-01T22:55:29.717Z,13.10
2023-05-01T22:57:58.262Z,13.10
2023-05-01T23:00:31.014Z,13.10
2023-05-01T23:03:01.806Z,13.10
2023-05-01T23:05:31.074Z,13.00
2023-05-01T23:07:59.352Z,13.00
2023-05-01T23:10:28.637Z,13.00
2023-05-01T23:12:57.357Z,12.90
2023-05-01T23:15:27.263Z,12.90
2023-05-01T23:17:57.697Z,12.80
2023-05-01T23:20:27.300Z,12.70
2023-05-01T23:22:55.376Z,12.70
2023-05-01T23:25:26.640Z,12.70
2023-05-01T23:27:56.315Z,12.60
2023-05-01T23:30:25.387Z,12.50
2023-05-01T23:32:54.333Z,12.50
2023-05-01T23:35:24.721Z,12.50
2023-05-01T23:37:54.320Z,12.40
2023-05-01T23:40:22.405Z,12.40
2023-05-01T23:42:53.346Z,12.40
2023-05-01T23:45:21.641Z,12.40
2023-05-01T23:47:50.328Z,12.40
2023-05-01T23:50:21.377Z,12.40
2023-05-01T23:52:52.297Z,12.30
2023-05-01T23:55:20.354Z,12.30
2023-05-01T23:57:48.526Z,12.20
